sensor_id;sensor_type;location;lat;lon;timestamp;temperature;humidity
74171;DHT22;62526;50.948;6.590;2023-04-24T00:00:13;11.80;99.90
74171;DHT22;62526;50.948;6.590;2023-04-24T00:02:42;11.90;99.90
74171;DHT22;62526;50.948;6.590;2023-04-24T00:05:08;11.80;99.90
74171;DHT22;62526;50.948;6.590;2023-04-24T00:07:35;11.90;99.90
74171;DHT22;62526;50.948;6.590;2023-04-24T00:10:01;11.90;99.90
74171;DHT22;62526;50.948;6.590;2023-04-24T00:12:28;11.90;99.90
74171;DHT22;62526;50.948;6.590;2023-04-24T00:14:55;12.00;99.90
74171;DHT22;62526;50.948;6.590;2023-04-24T00:17:21;11.90;99.90
74171;DHT22;62526;50.948;6.590;2023-04-24T00:19:48;11.90;99.90
74171;DHT22;62526;50.948;6.590;2023-04-24T00:22:15;12.00;99.90
74171;DHT22;62526;50.948;6.590;2023-04-24T00:24:41;12.00;99.90
74171;DHT22;62526;50.948;6.590;2023-04-24T00:27:08;11.90;99.90
74171;DHT22;62526;50.948;6.590;2023-04-24T00:29:34;11.90;99.90
74171;DHT22;62526;50.948;6.590;2023-04-24T00:32:01;11.80;99.90
74171;DHT22;62526;50.948;6.590;2023-04-24T00:34:28;11.80;99.90
74171;DHT22;62526;50.948;6.590;2023-04-24T00:36:54;11.90;99.90
74171;DHT22;62526;50.948;6.590;2023-04-24T00:39:21;11.80;99.90
74171;DHT22;62526;50.948;6.590;2023-04-24T00:41:47;11.80;99.90
74171;DHT22;62526;50.948;6.590;2023-04-24T00:44:14;11.90;99.90
74171;DHT22;62526;50.948;6.590;2023-04-24T00:46:41;11.70;99.90
74171;DHT22;62526;50.948;6.590;2023-04-24T00:49:07;11.80;99.90
74171;DHT22;62526;50.948;6.590;2023-04-24T00:51:34;11.70;99.90
74171;DHT22;62526;50.948;6.590;2023-04-24T00:54:01;11.50;99.90
74171;DHT22;62526;50.948;6.590;2023-04-24T00:56:27;11.50;99.90
74171;DHT22;62526;50.948;6.590;2023-04-24T00:58:54;11.40;99.90
74171;DHT22;62526;50.948;6.590;2023-04-24T01:01:20;11.20;99.90
74171;DHT22;62526;50.948;6.590;2023-04-24T01:03:48;11.20;99.90
74171;DHT22;62526;50.948;6.590;2023-04-24T01:06:13;11.00;99.90
74171;DHT22;62526;50.948;6.590;2023-04-24T01:08:40;10.80;99.90
74171;DHT22;62526;50.948;6.590;2023-04-24T01:11:07;10.60;99.90
74171;DHT22;62526;50.948;6.590;2023-04-24T01:13:33;10.40;99.90
74171;DHT22;62526;50.948;6.590;2023-04-24T01:16:00;10.30;99.90
74171;DHT22;62526;50.948;6.590;2023-04-24T01:18:27;10.30;99.90
74171;DHT22;62526;50.948;6.590;2023-04-24T01:20:54;10.10;99.90
74171;DHT22;62526;50.948;6.590;2023-04-24T01:23:20;10.00;99.90
74171;DHT22;62526;50.948;6.590;2023-04-24T01:25:47;9.90;99.90
74171;DHT22;62526;50.948;6.590;2023-04-24T01:28:13;9.90;99.90
74171;DHT22;62526;50.948;6.590;2023-04-24T01:30:40;9.90;99.90
74171;DHT22;62526;50.948;6.590;2023-04-24T01:33:06;10.00;99.90
74171;DHT22;62526;50.948;6.590;2023-04-24T01:35:33;10.00;99.90
74171;DHT22;62526;50.948;6.590;2023-04-24T01:38:00;10.00;99.90
74171;DHT22;62526;50.948;6.590;2023-04-24T01:40:26;10.00;99.90
74171;DHT22;62526;50.948;6.590;2023-04-24T01:42:53;10.00;99.90
74171;DHT22;62526;50.948;6.590;2023-04-24T01:45:19;9.90;99.90
74171;DHT22;62526;50.948;6.590;2023-04-24T01:47:47;9.90;99.90
74171;DHT22;62526;50.948;6.590;2023-04-24T01:50:13;9.80;99.90
74171;DHT22;62526;50.948;6.590;2023-04-24T01:52:40;9.80;99.90
74171;DHT22;62526;50.948;6.590;2023-04-24T01:55:07;9.80;99.90
74171;DHT22;62526;50.948;6.590;2023-04-24T01:57:34;9.80;99.90
74171;DHT22;62526;50.948;6.590;2023-04-24T02:00:01;9.90;99.90
74171;DHT22;62526;50.948;6.590;2023-04-24T02:02:28;9.90;99.90
74171;DHT22;62526;50.948;6.590;2023-04-24T02:04:55;9.90;99.90
74171;DHT22;62526;50.948;6.590;2023-04-24T02:07:22;10.00;99.90
74171;DHT22;62526;50.948;6.590;2023-04-24T02:09:48;10.10;99.90
74171;DHT22;62526;50.948;6.590;2023-04-24T02:12:15;10.10;99.90
74171;DHT22;62526;50.948;6.590;2023-04-24T02:14:43;10.10;99.90
74171;DHT22;62526;50.948;6.590;2023-04-24T02:17:09;10.10;99.90
74171;DHT22;62526;50.948;6.590;2023-04-24T02:19:36;10.10;99.90
74171;DHT22;62526;50.948;6.590;2023-04-24T02:22:02;10.10;99.90
74171;DHT22;62526;50.948;6.590;2023-04-24T02:24:29;10.10;99.90
74171;DHT22;62526;50.948;6.590;2023-04-24T02:26:56;10.10;99.90
74171;DHT22;62526;50.948;6.590;2023-04-24T02:29:22;10.20;99.90
74171;DHT22;62526;50.948;6.590;2023-04-24T02:31:49;10.10;99.90
74171;DHT22;62526;50.948;6.590;2023-04-24T02:34:15;10.00;99.90
74171;DHT22;62526;50.948;6.590;2023-04-24T02:36:42;10.10;99.90
74171;DHT22;62526;50.948;6.590;2023-04-24T02:39:09;10.30;99.90
74171;DHT22;62526;50.948;6.590;2023-04-24T02:41:35;10.10;99.90
74171;DHT22;62526;50.948;6.590;2023-04-24T02:44:02;10.20;99.90
74171;DHT22;62526;50.948;6.590;2023-04-24T02:46:28;10.10;99.90
74171;DHT22;62526;50.948;6.590;2023-04-24T02:48:55;10.10;99.90
74171;DHT22;62526;50.948;6.590;2023-04-24T02:51:22;10.10;99.90
74171;DHT22;62526;50.948;6.590;2023-04-24T02:53:48;10.00;99.90
74171;DHT22;62526;50.948;6.590;2023-04-24T02:56:15;10.10;99.90
74171;DHT22;62526;50.948;6.590;2023-04-24T02:58:41;10.10;99.90
74171;DHT22;62526;50.948;6.590;2023-04-24T03:01:08;10.10;99.90
74171;DHT22;62526;50.948;6.590;2023-04-24T03:03:35;10.10;99.90
74171;DHT22;62526;50.948;6.590;2023-04-24T03:06:01;10.10;99.90
74171;DHT22;62526;50.948;6.590;2023-04-24T03:08:28;10.20;99.90
74171;DHT22;62526;50.948;6.590;2023-04-24T03:10:54;10.20;99.90
74171;DHT22;62526;50.948;6.590;2023-04-24T03:13:21;10.20;99.90
74171;DHT22;62526;50.948;6.590;2023-04-24T03:15:48;10.00;99.90
74171;DHT22;62526;50.948;6.590;2023-04-24T03:18:14;10.10;99.90
74171;DHT22;62526;50.948;6.590;2023-04-24T03:20:41;10.10;99.90
74171;DHT22;62526;50.948;6.590;2023-04-24T03:23:07;10.10;99.90
74171;DHT22;62526;50.948;6.590;2023-04-24T03:25:35;10.10;99.90
74171;DHT22;62526;50.948;6.590;2023-04-24T03:28:01;10.10;99.90
74171;DHT22;62526;50.948;6.590;2023-04-24T03:30:28;10.10;99.90
74171;DHT22;62526;50.948;6.590;2023-04-24T03:32:55;10.10;99.90
74171;DHT22;62526;50.948;6.590;2023-04-24T03:35:21;10.10;99.90
74171;DHT22;62526;50.948;6.590;2023-04-24T03:37:48;10.20;99.90
74171;DHT22;62526;50.948;6.590;2023-04-24T03:40:14;10.20;99.90
74171;DHT22;62526;50.948;6.590;2023-04-24T03:42:41;10.10;99.90
74171;DHT22;62526;50.948;6.590;2023-04-24T03:45:09;10.00;99.90
74171;DHT22;62526;50.948;6.590;2023-04-24T03:47:35;10.00;99.90
74171;DHT22;62526;50.948;6.590;2023-04-24T03:50:02;10.00;99.90
74171;DHT22;62526;50.948;6.590;2023-04-24T03:52:29;10.10;99.90
74171;DHT22;62526;50.948;6.590;2023-04-24T03:54:55;10.10;99.90
74171;DHT22;62526;50.948;6.590;2023-04-24T03:57:22;10.10;99.90
74171;DHT22;62526;50.948;6.590;2023-04-24T03:59:48;10.10;99.90
74171;DHT22;62526;50.948;6.590;2023-04-24T04:02:15;10.10;99.90
74171;DHT22;62526;50.948;6.590;2023-04-24T04:04:42;10.10;99.90
74171;DHT22;62526;50.948;6.590;2023-04-24T04:07:08;10.10;99.90
74171;DHT22;62526;50.948;6.590;2023-04-24T04:09:35;10.10;99.90
74171;DHT22;62526;50.948;6.590;2023-04-24T04:12:02;10.20;99.90
74171;DHT22;62526;50.948;6.590;2023-04-24T04:14:28;10.20;99.90
74171;DHT22;62526;50.948;6.590;2023-04-24T04:16:55;10.20;99.90
74171;DHT22;62526;50.948;6.590;2023-04-24T04:19:21;10.20;99.90
74171;DHT22;62526;50.948;6.590;2023-04-24T04:21:48;10.20;99.90
74171;DHT22;62526;50.948;6.590;2023-04-24T04:24:17;10.20;99.90
74171;DHT22;62526;50.948;6.590;2023-04-24T04:26:44;10.30;99.90
74171;DHT22;62526;50.948;6.590;2023-04-24T04:29:10;10.30;99.90
74171;DHT22;62526;50.948;6.590;2023-04-24T04:31:37;10.20;99.90
74171;DHT22;62526;50.948;6.590;2023-04-24T04:34:04;10.20;99.90
74171;DHT22;62526;50.948;6.590;2023-04-24T04:36:30;10.20;99.90
74171;DHT22;62526;50.948;6.590;2023-04-24T04:38:57;10.20;99.90
74171;DHT22;62526;50.948;6.590;2023-04-24T04:41:23;10.30;99.90
74171;DHT22;62526;50.948;6.590;2023-04-24T04:43:50;10.30;99.90
74171;DHT22;62526;50.948;6.590;2023-04-24T04:46:17;10.10;99.90
74171;DHT22;62526;50.948;6.590;2023-04-24T04:48:43;10.10;99.90
74171;DHT22;62526;50.948;6.590;2023-04-24T04:51:10;10.20;99.90
74171;DHT22;62526;50.948;6.590;2023-04-24T04:53:37;10.10;99.90
74171;DHT22;62526;50.948;6.590;2023-04-24T04:56:03;10.10;99.90
74171;DHT22;62526;50.948;6.590;2023-04-24T04:58:30;10.20;99.90
74171;DHT22;62526;50.948;6.590;2023-04-24T05:00:56;10.20;99.90
74171;DHT22;62526;50.948;6.590;2023-04-24T05:03:23;10.10;99.90
74171;DHT22;62526;50.948;6.590;2023-04-24T05:05:50;10.00;99.90
74171;DHT22;62526;50.948;6.590;2023-04-24T05:08:16;10.10;99.90
74171;DHT22;62526;50.948;6.590;2023-04-24T05:10:43;9.90;99.90
74171;DHT22;62526;50.948;6.590;2023-04-24T05:13:09;10.00;99.90
74171;DHT22;62526;50.948;6.590;2023-04-24T05:15:36;9.90;99.90
74171;DHT22;62526;50.948;6.590;2023-04-24T05:18:03;9.80;99.90
74171;DHT22;62526;50.948;6.590;2023-04-24T05:20:29;9.60;99.90
74171;DHT22;62526;50.948;6.590;2023-04-24T05:22:56;9.50;99.90
74171;DHT22;62526;50.948;6.590;2023-04-24T05:25:22;9.70;99.90
74171;DHT22;62526;50.948;6.590;2023-04-24T05:27:49;9.70;99.90
74171;DHT22;62526;50.948;6.590;2023-04-24T05:30:16;9.70;99.90
74171;DHT22;62526;50.948;6.590;2023-04-24T05:32:42;9.60;99.90
74171;DHT22;62526;50.948;6.590;2023-04-24T05:35:09;9.60;99.90
74171;DHT22;62526;50.948;6.590;2023-04-24T05:37:35;9.60;99.90
74171;DHT22;62526;50.948;6.590;2023-04-24T05:40:03;9.60;99.90
74171;DHT22;62526;50.948;6.590;2023-04-24T05:42:30;8.40;99.90
74171;DHT22;62526;50.948;6.590;2023-04-24T05:44:57;9.60;99.90
74171;DHT22;62526;50.948;6.590;2023-04-24T05:47:23;9.60;99.90
74171;DHT22;62526;50.948;6.590;2023-04-24T05:49:50;9.60;99.90
74171;DHT22;62526;50.948;6.590;2023-04-24T05:52:17;9.60;99.90
74171;DHT22;62526;50.948;6.590;2023-04-24T05:54:43;9.50;99.90
74171;DHT22;62526;50.948;6.590;2023-04-24T05:57:10;9.40;99.90
74171;DHT22;62526;50.948;6.590;2023-04-24T05:59:37;9.40;99.90
74171;DHT22;62526;50.948;6.590;2023-04-24T06:02:04;9.40;99.90
74171;DHT22;62526;50.948;6.590;2023-04-24T06:04:31;9.40;99.90
74171;DHT22;62526;50.948;6.590;2023-04-24T06:06:57;9.40;99.90
74171;DHT22;62526;50.948;6.590;2023-04-24T06:09:24;9.40;99.90
74171;DHT22;62526;50.948;6.590;2023-04-24T06:11:51;9.20;99.90
74171;DHT22;62526;50.948;6.590;2023-04-24T06:14:18;9.20;99.90
74171;DHT22;62526;50.948;6.590;2023-04-24T06:16:44;9.10;99.90
74171;DHT22;62526;50.948;6.590;2023-04-24T06:19:11;9.10;99.90
74171;DHT22;62526;50.948;6.590;2023-04-24T06:21:38;9.10;99.90
74171;DHT22;62526;50.948;6.590;2023-04-24T06:24:04;9.00;99.90
74171;DHT22;62526;50.948;6.590;2023-04-24T06:26:31;9.00;99.90
74171;DHT22;62526;50.948;6.590;2023-04-24T06:28:57;8.90;99.90
74171;DHT22;62526;50.948;6.590;2023-04-24T06:31:24;8.80;99.90
74171;DHT22;62526;50.948;6.590;2023-04-24T06:33:51;8.80;99.90
74171;DHT22;62526;50.948;6.590;2023-04-24T06:36:17;8.80;99.90
74171;DHT22;62526;50.948;6.590;2023-04-24T06:38:44;8.80;99.90
74171;DHT22;62526;50.948;6.590;2023-04-24T06:41:10;8.80;99.90
74171;DHT22;62526;50.948;6.590;2023-04-24T06:43:37;8.80;99.90
74171;DHT22;62526;50.948;6.590;2023-04-24T06:46:04;8.70;99.90
74171;DHT22;62526;50.948;6.590;2023-04-24T06:48:30;8.70;99.90
74171;DHT22;62526;50.948;6.590;2023-04-24T06:50:57;8.70;99.90
74171;DHT22;62526;50.948;6.590;2023-04-24T06:53:23;8.70;99.90
74171;DHT22;62526;50.948;6.590;2023-04-24T06:55:50;8.70;99.90
74171;DHT22;62526;50.948;6.590;2023-04-24T06:58:17;8.70;99.90
74171;DHT22;62526;50.948;6.590;2023-04-24T07:00:43;8.70;99.90
74171;DHT22;62526;50.948;6.590;2023-04-24T07:03:10;8.70;99.90
74171;DHT22;62526;50.948;6.590;2023-04-24T07:05:36;8.60;99.90
74171;DHT22;62526;50.948;6.590;2023-04-24T07:08:03;8.60;99.90
74171;DHT22;62526;50.948;6.590;2023-04-24T07:10:30;8.60;99.90
74171;DHT22;62526;50.948;6.590;2023-04-24T07:12:56;8.50;99.90
74171;DHT22;62526;50.948;6.590;2023-04-24T07:15:23;8.50;99.90
74171;DHT22;62526;50.948;6.590;2023-04-24T07:17:49;8.40;99.90
74171;DHT22;62526;50.948;6.590;2023-04-24T07:20:16;8.40;99.90
74171;DHT22;62526;50.948;6.590;2023-04-24T07:22:43;8.40;99.90
74171;DHT22;62526;50.948;6.590;2023-04-24T07:25:10;8.30;99.90
74171;DHT22;62526;50.948;6.590;2023-04-24T07:27:37;8.30;99.90
74171;DHT22;62526;50.948;6.590;2023-04-24T07:30:04;8.10;99.90
74171;DHT22;62526;50.948;6.590;2023-04-24T07:32:30;8.10;99.90
74171;DHT22;62526;50.948;6.590;2023-04-24T07:34:57;8.00;99.90
74171;DHT22;62526;50.948;6.590;2023-04-24T07:37:23;8.00;99.90
74171;DHT22;62526;50.948;6.590;2023-04-24T07:39:50;7.90;99.90
74171;DHT22;62526;50.948;6.590;2023-04-24T07:42:17;7.90;99.90
74171;DHT22;62526;50.948;6.590;2023-04-24T07:44:43;7.80;99.90
74171;DHT22;62526;50.948;6.590;2023-04-24T07:47:10;7.80;99.90
74171;DHT22;62526;50.948;6.590;2023-04-24T07:49:36;7.70;99.90
74171;DHT22;62526;50.948;6.590;2023-04-24T07:52:03;7.70;99.90
74171;DHT22;62526;50.948;6.590;2023-04-24T07:54:30;7.70;99.90
74171;DHT22;62526;50.948;6.590;2023-04-24T07:56:56;7.70;99.90
74171;DHT22;62526;50.948;6.590;2023-04-24T07:59:23;7.60;99.90
74171;DHT22;62526;50.948;6.590;2023-04-24T08:01:50;7.60;99.90
74171;DHT22;62526;50.948;6.590;2023-04-24T08:04:16;7.60;99.90
74171;DHT22;62526;50.948;6.590;2023-04-24T08:06:43;7.50;99.90
74171;DHT22;62526;50.948;6.590;2023-04-24T08:09:09;7.50;99.90
74171;DHT22;62526;50.948;6.590;2023-04-24T08:11:36;7.40;99.90
74171;DHT22;62526;50.948;6.590;2023-04-24T08:14:03;7.40;99.90
74171;DHT22;62526;50.948;6.590;2023-04-24T08:16:29;7.40;99.90
74171;DHT22;62526;50.948;6.590;2023-04-24T08:18:56;7.50;99.90
74171;DHT22;62526;50.948;6.590;2023-04-24T08:21:22;7.40;99.90
74171;DHT22;62526;50.948;6.590;2023-04-24T08:23:49;7.40;99.90
74171;DHT22;62526;50.948;6.590;2023-04-24T08:26:16;7.30;99.90
74171;DHT22;62526;50.948;6.590;2023-04-24T08:28:42;7.40;99.90
74171;DHT22;62526;50.948;6.590;2023-04-24T08:31:09;7.40;99.90
74171;DHT22;62526;50.948;6.590;2023-04-24T08:33:35;7.40;99.90
74171;DHT22;62526;50.948;6.590;2023-04-24T08:36:03;7.40;99.90
74171;DHT22;62526;50.948;6.590;2023-04-24T08:38:29;7.50;99.90
74171;DHT22;62526;50.948;6.590;2023-04-24T08:40:58;7.50;99.90
74171;DHT22;62526;50.948;6.590;2023-04-24T08:43:23;7.50;99.90
74171;DHT22;62526;50.948;6.590;2023-04-24T08:45:49;7.50;99.90
74171;DHT22;62526;50.948;6.590;2023-04-24T08:48:16;7.50;99.90
74171;DHT22;62526;50.948;6.590;2023-04-24T08:50:42;7.50;99.90
74171;DHT22;62526;50.948;6.590;2023-04-24T08:53:09;7.60;99.90
74171;DHT22;62526;50.948;6.590;2023-04-24T08:55:37;7.60;99.90
74171;DHT22;62526;50.948;6.590;2023-04-24T08:58:02;7.60;99.90
74171;DHT22;62526;50.948;6.590;2023-04-24T09:00:29;7.60;99.90
74171;DHT22;62526;50.948;6.590;2023-04-24T09:02:56;7.60;99.90
74171;DHT22;62526;50.948;6.590;2023-04-24T09:05:22;7.70;99.90
74171;DHT22;62526;50.948;6.590;2023-04-24T09:07:52;7.80;99.90
74171;DHT22;62526;50.948;6.590;2023-04-24T09:10:16;7.80;99.90
74171;DHT22;62526;50.948;6.590;2023-04-24T09:12:43;7.80;99.90
74171;DHT22;62526;50.948;6.590;2023-04-24T09:15:10;7.80;99.90
74171;DHT22;62526;50.948;6.590;2023-04-24T09:17:37;7.90;99.90
74171;DHT22;62526;50.948;6.590;2023-04-24T09:20:04;7.90;99.90
74171;DHT22;62526;50.948;6.590;2023-04-24T09:22:30;7.90;99.90
74171;DHT22;62526;50.948;6.590;2023-04-24T09:25:02;8.00;99.90
74171;DHT22;62526;50.948;6.590;2023-04-24T09:27:28;8.00;99.90
74171;DHT22;62526;50.948;6.590;2023-04-24T09:29:56;8.00;99.90
74171;DHT22;62526;50.948;6.590;2023-04-24T09:32:23;8.10;99.90
74171;DHT22;62526;50.948;6.590;2023-04-24T09:34:49;8.20;99.90
74171;DHT22;62526;50.948;6.590;2023-04-24T09:40:06;8.30;99.90
74171;DHT22;62526;50.948;6.590;2023-04-24T09:42:15;8.40;99.90
74171;DHT22;62526;50.948;6.590;2023-04-24T09:44:41;8.60;99.90
74171;DHT22;62526;50.948;6.590;2023-04-24T09:47:08;8.60;99.90
74171;DHT22;62526;50.948;6.590;2023-04-24T09:49:34;8.60;99.90
74171;DHT22;62526;50.948;6.590;2023-04-24T09:52:06;8.70;99.90
74171;DHT22;62526;50.948;6.590;2023-04-24T09:54:32;8.70;99.90
74171;DHT22;62526;50.948;6.590;2023-04-24T09:56:59;8.80;99.90
74171;DHT22;62526;50.948;6.590;2023-04-24T09:59:26;8.90;99.90
74171;DHT22;62526;50.948;6.590;2023-04-24T10:01:53;9.00;99.90
74171;DHT22;62526;50.948;6.590;2023-04-24T10:04:21;9.20;99.90
74171;DHT22;62526;50.948;6.590;2023-04-24T10:06:47;9.30;99.90
74171;DHT22;62526;50.948;6.590;2023-04-24T10:09:12;9.20;99.90
74171;DHT22;62526;50.948;6.590;2023-04-24T10:11:41;9.10;99.90
74171;DHT22;62526;50.948;6.590;2023-04-24T10:14:09;9.20;99.90
74171;DHT22;62526;50.948;6.590;2023-04-24T10:16:35;9.10;99.90
74171;DHT22;62526;50.948;6.590;2023-04-24T10:19:01;9.20;99.90
74171;DHT22;62526;50.948;6.590;2023-04-24T10:21:28;9.30;99.90
74171;DHT22;62526;50.948;6.590;2023-04-24T10:23:55;9.40;99.90
74171;DHT22;62526;50.948;6.590;2023-04-24T10:26:21;9.40;99.90
74171;DHT22;62526;50.948;6.590;2023-04-24T10:28:48;9.50;99.90
74171;DHT22;62526;50.948;6.590;2023-04-24T10:31:14;9.40;99.90
74171;DHT22;62526;50.948;6.590;2023-04-24T10:33:42;9.50;99.90
74171;DHT22;62526;50.948;6.590;2023-04-24T10:36:10;9.60;99.90
74171;DHT22;62526;50.948;6.590;2023-04-24T10:38:37;9.70;99.90
74171;DHT22;62526;50.948;6.590;2023-04-24T10:41:08;9.70;99.90
74171;DHT22;62526;50.948;6.590;2023-04-24T10:43:34;9.60;99.90
74171;DHT22;62526;50.948;6.590;2023-04-24T10:46:02;9.50;99.90
74171;DHT22;62526;50.948;6.590;2023-04-24T10:48:28;9.50;99.90
74171;DHT22;62526;50.948;6.590;2023-04-24T10:50:55;9.50;99.90
74171;DHT22;62526;50.948;6.590;2023-04-24T10:53:23;9.50;99.90
74171;DHT22;62526;50.948;6.590;2023-04-24T10:55:50;9.50;99.90
74171;DHT22;62526;50.948;6.590;2023-04-24T10:58:17;9.50;99.90
74171;DHT22;62526;50.948;6.590;2023-04-24T11:00:43;9.60;99.90
74171;DHT22;62526;50.948;6.590;2023-04-24T11:03:27;9.60;99.90
74171;DHT22;62526;50.948;6.590;2023-04-24T11:06:00;9.70;99.90
74171;DHT22;62526;50.948;6.590;2023-04-24T11:08:28;9.70;99.90
74171;DHT22;62526;50.948;6.590;2023-04-24T11:10:55;9.70;99.90
74171;DHT22;62526;50.948;6.590;2023-04-24T11:13:22;9.80;99.90
74171;DHT22;62526;50.948;6.590;2023-04-24T11:18:26;9.80;99.90
74171;DHT22;62526;50.948;6.590;2023-04-24T11:20:54;9.70;99.90
74171;DHT22;62526;50.948;6.590;2023-04-24T11:23:19;9.80;99.90
74171;DHT22;62526;50.948;6.590;2023-04-24T11:25:52;9.90;99.90
74171;DHT22;62526;50.948;6.590;2023-04-24T11:28:14;10.00;99.90
74171;DHT22;62526;50.948;6.590;2023-04-24T11:30:39;10.10;99.90
74171;DHT22;62526;50.948;6.590;2023-04-24T11:33:06;10.20;99.90
74171;DHT22;62526;50.948;6.590;2023-04-24T11:35:36;10.70;99.90
74171;DHT22;62526;50.948;6.590;2023-04-24T11:38:02;11.10;99.90
74171;DHT22;62526;50.948;6.590;2023-04-24T11:40:28;11.30;99.90
74171;DHT22;62526;50.948;6.590;2023-04-24T11:42:55;11.30;99.90
74171;DHT22;62526;50.948;6.590;2023-04-24T11:45:23;11.00;99.90
74171;DHT22;62526;50.948;6.590;2023-04-24T11:47:49;11.10;99.90
74171;DHT22;62526;50.948;6.590;2023-04-24T11:50:17;11.10;99.90
74171;DHT22;62526;50.948;6.590;2023-04-24T11:52:44;11.00;99.90
74171;DHT22;62526;50.948;6.590;2023-04-24T11:55:29;11.00;99.90
74171;DHT22;62526;50.948;6.590;2023-04-24T11:57:57;11.00;99.90
74171;DHT22;62526;50.948;6.590;2023-04-24T12:00:26;11.00;99.90
74171;DHT22;62526;50.948;6.590;2023-04-24T12:03:02;11.10;99.90
74171;DHT22;62526;50.948;6.590;2023-04-24T12:05:20;11.20;99.90
74171;DHT22;62526;50.948;6.590;2023-04-24T12:07:46;11.10;99.90
74171;DHT22;62526;50.948;6.590;2023-04-24T12:10:13;11.20;99.90
74171;DHT22;62526;50.948;6.590;2023-04-24T12:12:39;11.30;99.90
74171;DHT22;62526;50.948;6.590;2023-04-24T12:15:07;11.20;99.90
74171;DHT22;62526;50.948;6.590;2023-04-24T12:17:34;11.50;99.90
74171;DHT22;62526;50.948;6.590;2023-04-24T12:20:04;11.50;99.90
74171;DHT22;62526;50.948;6.590;2023-04-24T12:22:53;11.90;99.90
74171;DHT22;62526;50.948;6.590;2023-04-24T12:25:17;11.90;99.90
74171;DHT22;62526;50.948;6.590;2023-04-24T12:27:44;11.80;99.90
74171;DHT22;62526;50.948;6.590;2023-04-24T12:30:11;11.80;99.90
74171;DHT22;62526;50.948;6.590;2023-04-24T12:32:40;12.00;99.90
74171;DHT22;62526;50.948;6.590;2023-04-24T12:35:04;12.20;99.90
74171;DHT22;62526;50.948;6.590;2023-04-24T12:37:32;12.60;99.90
74171;DHT22;62526;50.948;6.590;2023-04-24T12:40:07;12.80;99.90
74171;DHT22;62526;50.948;6.590;2023-04-24T12:42:34;12.70;99.90
74171;DHT22;62526;50.948;6.590;2023-04-24T12:45:04;12.40;99.90
74171;DHT22;62526;50.948;6.590;2023-04-24T12:47:30;13.10;99.90
74171;DHT22;62526;50.948;6.590;2023-04-24T12:49:56;13.40;99.90
74171;DHT22;62526;50.948;6.590;2023-04-24T12:52:23;13.20;99.90
74171;DHT22;62526;50.948;6.590;2023-04-24T12:54:50;12.80;99.90
74171;DHT22;62526;50.948;6.590;2023-04-24T12:57:17;13.10;99.90
74171;DHT22;62526;50.948;6.590;2023-04-24T12:59:43;13.50;99.90
74171;DHT22;62526;50.948;6.590;2023-04-24T13:02:10;13.60;99.90
74171;DHT22;62526;50.948;6.590;2023-04-24T13:04:36;13.70;99.90
74171;DHT22;62526;50.948;6.590;2023-04-24T13:07:03;13.50;99.90
74171;DHT22;62526;50.948;6.590;2023-04-24T13:09:29;13.50;99.90
74171;DHT22;62526;50.948;6.590;2023-04-24T13:11:56;12.90;99.90
74171;DHT22;62526;50.948;6.590;2023-04-24T13:14:22;13.40;99.90
74171;DHT22;62526;50.948;6.590;2023-04-24T13:16:49;13.80;99.90
74171;DHT22;62526;50.948;6.590;2023-04-24T13:19:16;13.80;99.90
74171;DHT22;62526;50.948;6.590;2023-04-24T13:21:42;13.90;99.90
74171;DHT22;62526;50.948;6.590;2023-04-24T13:24:09;14.30;99.90
74171;DHT22;62526;50.948;6.590;2023-04-24T13:26:35;14.40;99.90
74171;DHT22;62526;50.948;6.590;2023-04-24T13:29:02;13.50;99.90
74171;DHT22;62526;50.948;6.590;2023-04-24T13:31:29;13.60;99.90
74171;DHT22;62526;50.948;6.590;2023-04-24T13:33:55;13.30;99.90
74171;DHT22;62526;50.948;6.590;2023-04-24T13:36:22;12.70;99.90
74171;DHT22;62526;50.948;6.590;2023-04-24T13:38:48;12.80;99.90
74171;DHT22;62526;50.948;6.590;2023-04-24T13:41:15;12.60;99.90
74171;DHT22;62526;50.948;6.590;2023-04-24T13:43:42;13.00;99.90
74171;DHT22;62526;50.948;6.590;2023-04-24T13:46:08;13.60;99.90
74171;DHT22;62526;50.948;6.590;2023-04-24T13:48:35;13.90;99.90
74171;DHT22;62526;50.948;6.590;2023-04-24T13:51:02;14.50;99.90
74171;DHT22;62526;50.948;6.590;2023-04-24T13:53:28;14.80;99.90
74171;DHT22;62526;50.948;6.590;2023-04-24T13:55:55;14.50;99.90
74171;DHT22;62526;50.948;6.590;2023-04-24T13:58:21;13.90;99.90
74171;DHT22;62526;50.948;6.590;2023-04-24T14:00:48;13.60;99.90
74171;DHT22;62526;50.948;6.590;2023-04-24T14:03:15;12.30;99.90
74171;DHT22;62526;50.948;6.590;2023-04-24T14:05:41;12.40;99.90
74171;DHT22;62526;50.948;6.590;2023-04-24T14:08:08;12.40;99.90
74171;DHT22;62526;50.948;6.590;2023-04-24T14:10:35;12.60;99.90
74171;DHT22;62526;50.948;6.590;2023-04-24T14:13:01;13.40;99.90
74171;DHT22;62526;50.948;6.590;2023-04-24T14:15:28;13.10;99.90
74171;DHT22;62526;50.948;6.590;2023-04-24T14:17:54;13.40;99.90
74171;DHT22;62526;50.948;6.590;2023-04-24T14:20:21;14.20;99.90
74171;DHT22;62526;50.948;6.590;2023-04-24T14:22:48;13.90;99.90
74171;DHT22;62526;50.948;6.590;2023-04-24T14:25:14;13.40;99.90
74171;DHT22;62526;50.948;6.590;2023-04-24T14:27:41;13.80;99.90
74171;DHT22;62526;50.948;6.590;2023-04-24T14:30:08;13.80;99.90
74171;DHT22;62526;50.948;6.590;2023-04-24T14:32:34;13.80;99.90
74171;DHT22;62526;50.948;6.590;2023-04-24T14:35:01;14.30;99.90
74171;DHT22;62526;50.948;6.590;2023-04-24T14:37:28;15.30;99.90
74171;DHT22;62526;50.948;6.590;2023-04-24T14:39:55;15.50;99.90
74171;DHT22;62526;50.948;6.590;2023-04-24T14:42:22;14.90;99.90
74171;DHT22;62526;50.948;6.590;2023-04-24T14:44:48;14.20;99.90
74171;DHT22;62526;50.948;6.590;2023-04-24T14:47:15;13.80;99.90
74171;DHT22;62526;50.948;6.590;2023-04-24T14:49:42;14.10;99.90
74171;DHT22;62526;50.948;6.590;2023-04-24T14:52:08;15.00;99.90
74171;DHT22;62526;50.948;6.590;2023-04-24T14:54:35;16.30;99.90
74171;DHT22;62526;50.948;6.590;2023-04-24T14:57:01;17.70;99.90
74171;DHT22;62526;50.948;6.590;2023-04-24T14:59:29;19.30;85.30
74171;DHT22;62526;50.948;6.590;2023-04-24T15:01:55;19.20;85.20
74171;DHT22;62526;50.948;6.590;2023-04-24T15:04:22;19.50;81.40
74171;DHT22;62526;50.948;6.590;2023-04-24T15:06:49;20.20;74.90
74171;DHT22;62526;50.948;6.590;2023-04-24T15:09:15;20.70;69.00
74171;DHT22;62526;50.948;6.590;2023-04-24T15:11:43;20.30;69.30
74171;DHT22;62526;50.948;6.590;2023-04-24T15:14:09;19.90;70.00
74171;DHT22;62526;50.948;6.590;2023-04-24T15:16:36;19.60;68.60
74171;DHT22;62526;50.948;6.590;2023-04-24T15:19:02;19.80;65.40
74171;DHT22;62526;50.948;6.590;2023-04-24T15:21:29;18.60;72.20
74171;DHT22;62526;50.948;6.590;2023-04-24T15:23:56;17.60;80.70
74171;DHT22;62526;50.948;6.590;2023-04-24T15:26:23;17.00;97.20
74171;DHT22;62526;50.948;6.590;2023-04-24T15:28:49;16.40;99.90
74171;DHT22;62526;50.948;6.590;2023-04-24T15:31:15;16.20;99.90
74171;DHT22;62526;50.948;6.590;2023-04-24T15:33:42;16.40;99.90
74171;DHT22;62526;50.948;6.590;2023-04-24T15:36:09;17.40;99.90
74171;DHT22;62526;50.948;6.590;2023-04-24T15:38:35;18.70;95.40